Messwerte Madison

Temperatur

Temperatur
°C
1603616400 4.00 4.00 0
1603620000 5.00 5.00 0
1603623600 6.00 6.00 -1
1603627200 7.00 7.00 -1
1603630800 8.00 8.00 -1
1603634400 9.00 9.00 0
1603638000 10.00 10.00 1
1603641600 11.00 11.00 1
1603645200 12.00 12.00 2
1603648800 13.00 13.00
1603652400 14.00 14.00 2
1603656000 15.00 15.00 0
1603659600 16.00 16.00 0
1603663200 17.00 17.00 0
1603666800 18.00 18.00 0
1603670400 19.00 19.00 0
1603674000 20.00 20.00 0
1603677600 21.00 21.00
1603681200 22.00 22.00 -1
1603684800 23.00 23.00 -1
1603688400 0.00 0.00 -1
1603692000 1.00 1.00 -1
1603695600 2.00 2.00 -1
1603699200 3.00 3.00 -1

Aktuellste Messwerte

Wettercharakter
Wetter: bedeckt
Temperatur
-1 °C
Feuchtigkeit
85 %
Wind
15 km/hWindrichtung: Nord
Luftdruck
1024 hPa
Messzeit: 26. Oktober 2020, 5.00Datenquelle: METAR

Weitere Messstationen in der Nähe

Messstation Temperatur Entfernung
Watertown 0 °C 50 km
Baraboo -3 °C 56 km
Monroe -1 °C 60 km
Juneau -1 °C 61 km
Janesville / Rock County 0 °C 61 km
Lone Rock -1 °C 69 km
Mineral Point 0 °C 78 km

Wind

Windrichtung Böen Mittelwind
° km/h km/h
1603616400 4.00 3.00 - 4.00 20° 20
1603620000 5.00 4.00 - 5.00 20° 15
1603623600 6.00 5.00 - 6.00 20° 15
1603627200 7.00 6.00 - 7.00 20° 10
1603630800 8.00 7.00 - 8.00 20° 15
1603634400 9.00 8.00 - 9.00 30° 10
1603638000 10.00 9.00 - 10.00 20° 15
1603641600 11.00 10.00 - 11.00 30° 15
1603645200 12.00 11.00 - 12.00 40° 15
1603648800 13.00 12.00 - 13.00
1603652400 14.00 13.00 - 14.00 10° 15
1603656000 15.00 14.00 - 15.00 360° 20
1603659600 16.00 15.00 - 16.00 10° 15
1603663200 17.00 16.00 - 17.00 10° 15
1603666800 18.00 17.00 - 18.00 10° 15
1603670400 19.00 18.00 - 19.00 10° 10
1603674000 20.00 19.00 - 20.00 10° 15
1603677600 21.00 20.00 - 21.00
1603681200 22.00 21.00 - 22.00 350° 10
1603684800 23.00 22.00 - 23.00 340° 10
1603688400 0.00 23.00 - 0.00 350° 15
1603692000 1.00 0.00 - 1.00 350° 10
1603695600 2.00 1.00 - 2.00 350° 15
1603699200 3.00 2.00 - 3.00 340° 15

Ihre Wetterstation

Fehlt Ihre Wetterstation auf unserem Portal?

Schreiben Sie an network@meteonews.ch

Klima

Wann ist es am wärmsten? Wann regnet es am wenigsten? Unsere Klimadaten geben Auskunft.